Time;durP1;ratioP1;P1;durP2;ratioP2;P2;SDS_P1;SDS_P2;PMS_P1;PMS_P2;Temp;Humidity;BMP_temperature;BMP_pressure;BME280_temperature;BME280_humidity;BME280_pressure;Samples;Min_cycle;Max_cycle;Signal;HPM_P1;HPM_P2
2022/04/10 00:01:34;;;;;;;0.00;0.00;;;2.80;99.90;;;;;;5056738;28;20102;-85
2022/04/10 00:04:00;;;;;;;0.00;0.00;;;2.70;99.90;;;;;;5056459;28;20391;-84
2022/04/10 00:06:27;;;;;;;0.00;0.00;;;2.70;99.90;;;;;;5056561;28;20492;-85
2022/04/10 00:08:53;;;;;;;0.00;0.00;;;2.90;99.90;;;;;;5073659;28;20358;-85
2022/04/10 00:11:19;;;;;;;0.00;0.00;;;2.70;99.90;;;;;;5056369;28;20081;-84
2022/04/10 00:13:45;;;;;;;0.17;0.10;;;2.70;99.90;;;;;;5073093;28;20044;-84
2022/04/10 00:16:10;;;;;;;0.00;0.00;;;2.90;99.90;;;;;;5072955;28;20047;-85
2022/04/10 00:18:37;;;;;;;0.00;0.00;;;2.60;99.90;;;;;;5073461;28;20056;-84
2022/04/10 00:21:04;;;;;;;0.10;0.10;;;2.50;99.90;;;;;;5073166;28;20040;-84
2022/04/10 00:23:30;;;;;;;0.00;0.00;;;2.50;99.90;;;;;;5072332;28;20092;-85
2022/04/10 00:25:56;;;;;;;0.00;0.00;;;2.50;99.90;;;;;;5056319;28;20122;-85
2022/04/10 00:28:21;;;;;;;0.00;0.00;;;2.50;99.90;;;;;;5055308;28;20499;-85
2022/04/10 00:30:47;;;;;;;0.00;0.00;;;2.50;99.90;;;;;;5055972;28;20139;-85
2022/04/10 00:33:13;;;;;;;0.00;0.00;;;2.50;99.90;;;;;;5072578;28;20135;-84
2022/04/10 00:35:38;;;;;;;0.10;0.10;;;2.60;99.90;;;;;;5072617;28;20505;-85
2022/04/10 00:38:04;;;;;;;0.00;0.00;;;2.60;99.90;;;;;;5056583;28;20097;-85
2022/04/10 00:40:30;;;;;;;0.13;0.13;;;2.60;99.90;;;;;;5055679;28;20067;-85
2022/04/10 00:42:56;;;;;;;0.00;0.00;;;2.60;99.90;;;;;;5055774;28;20053;-85
2022/04/10 00:45:22;;;;;;;0.20;0.20;;;2.50;99.90;;;;;;5055915;28;20056;-84
2022/04/10 00:47:48;;;;;;;0.00;0.00;;;2.60;99.90;;;;;;5055681;28;20052;-84
2022/04/10 00:50:15;;;;;;;0.00;0.00;;;2.50;99.90;;;;;;5056563;28;20052;-85
2022/04/10 00:52:42;;;;;;;0.50;0.50;;;2.50;99.90;;;;;;5055811;28;20106;-85
2022/04/10 00:55:08;;;;;;;0.00;0.00;;;2.50;99.90;;;;;;5072569;28;20045;-85
2022/04/10 00:57:34;;;;;;;0.00;0.00;;;2.50;99.90;;;;;;5055835;28;20074;-85
2022/04/10 01:00:00;;;;;;;0.28;0.28;;;2.50;99.90;;;;;;5072479;28;20082;-85
2022/04/10 01:02:26;;;;;;;0.00;0.00;;;2.50;99.90;;;;;;5055321;28;20054;-85
2022/04/10 01:04:52;;;;;;;0.00;0.00;;;2.50;99.90;;;;;;5055726;28;20078;-85
2022/04/10 01:07:18;;;;;;;1.20;0.22;;;2.50;99.90;;;;;;5055777;28;20130;-85
2022/04/10 01:09:45;;;;;;;0.00;0.00;;;2.50;99.90;;;;;;5072451;28;20094;-85
2022/04/10 01:12:12;;;;;;;0.30;0.30;;;2.50;99.90;;;;;;5072039;28;20059;-85
2022/04/10 01:14:39;;;;;;;0.30;0.15;;;2.50;99.90;;;;;;5055610;28;20045;-85
2022/04/10 01:17:10;;;;;;;0.00;0.00;;;2.50;99.90;;;;;;5055835;28;20484;-85
2022/04/10 01:19:38;;;;;;;0.00;0.00;;;2.50;99.90;;;;;;5072297;28;20052;-85
2022/04/10 01:22:06;;;;;;;0.00;0.00;;;2.50;99.90;;;;;;5072292;28;20549;-85
2022/04/10 01:24:36;;;;;;;1.08;0.52;;;2.50;99.90;;;;;;5055742;28;20056;-85
2022/04/10 01:27:02;;;;;;;0.00;0.00;;;2.50;99.90;;;;;;5055376;28;20044;-85
2022/04/10 01:29:28;;;;;;;0.00;0.00;;;2.60;99.90;;;;;;5056026;28;20499;-85
2022/04/10 01:31:55;;;;;;;0.00;0.00;;;2.60;99.90;;;;;;5055485;28;20045;-85
2022/04/10 01:34:21;;;;;;;0.10;0.10;;;2.50;99.90;;;;;;5055406;28;20048;-86
2022/04/10 01:36:46;;;;;;;5.18;0.15;;;2.50;99.90;;;;;;5072174;28;20412;-85
2022/04/10 01:39:15;;;;;;;0.00;0.00;;;2.50;99.90;;;;;;5071859;28;20048;-85
2022/04/10 01:41:41;;;;;;;0.00;0.00;;;2.50;99.90;;;;;;5075599;28;20049;-85
2022/04/10 01:44:09;;;;;;;0.00;0.00;;;2.50;99.90;;;;;;5059494;28;20049;-86
2022/04/10 01:46:36;;;;;;;0.00;0.00;;;2.50;99.90;;;;;;5059038;28;20084;-85
2022/04/10 01:49:03;;;;;;;0.00;0.00;;;2.40;99.90;;;;;;5059169;28;20052;-85
2022/04/10 01:51:29;;;;;;;0.00;0.00;;;2.40;99.90;;;;;;5059207;28;20052;-86
2022/04/10 01:53:55;;;;;;;0.00;0.00;;;2.40;99.90;;;;;;5059280;28;20642;-85
2022/04/10 01:56:22;;;;;;;0.10;0.10;;;2.40;99.90;;;;;;5075317;28;20036;-85
2022/04/10 01:58:48;;;;;;;0.00;0.00;;;2.40;99.90;;;;;;5075728;28;20041;-85
2022/04/10 02:01:15;;;;;;;0.00;0.00;;;2.40;99.90;;;;;;5058920;28;20101;-86
2022/04/10 02:03:42;;;;;;;0.00;0.00;;;2.30;99.90;;;;;;5075439;28;20169;-85
2022/04/10 02:06:10;;;;;;;0.00;0.00;;;2.30;99.90;;;;;;5075608;28;20046;-85
2022/04/10 02:08:36;;;;;;;1.02;0.03;;;2.30;99.90;;;;;;5058772;28;20123;-85
2022/04/10 02:11:10;;;;;;;0.00;0.00;;;2.30;99.90;;;;;;5075373;28;20044;-86
2022/04/10 02:13:35;;;;;;;0.00;0.00;;;2.30;99.90;;;;;;5075624;28;20055;-85
2022/04/10 02:16:01;;;;;;;0.00;0.00;;;2.30;99.90;;;;;;5058582;28;20140;-86
2022/04/10 02:18:27;;;;;;;0.00;0.00;;;2.30;99.90;;;;;;5075333;28;20044;-85
2022/04/10 02:20:52;;;;;;;0.00;0.00;;;2.20;99.90;;;;;;5075504;28;20047;-86
2022/04/10 02:23:18;;;;;;;0.00;0.00;;;2.20;99.90;;;;;;5057894;28;20052;-85
2022/04/10 02:25:44;;;;;;;0.00;0.00;;;2.10;99.90;;;;;;5074859;28;20442;-86
2022/04/10 02:28:09;;;;;;;1.88;0.38;;;2.10;99.90;;;;;;5058159;28;20049;-85
2022/04/10 02:30:35;;;;;;;0.00;0.00;;;2.10;99.90;;;;;;5058056;28;20409;-86
2022/04/10 02:33:00;;;;;;;0.00;0.00;;;2.10;99.90;;;;;;5058446;28;20045;-85
2022/04/10 02:35:26;;;;;;;0.05;0.00;;;2.20;99.90;;;;;;5058034;28;20075;-86
2022/04/10 02:37:52;;;;;;;0.00;0.00;;;2.00;99.90;;;;;;5074999;28;20052;-85
2022/04/10 02:40:18;;;;;;;0.00;0.00;;;2.00;99.90;;;;;;5058036;28;20044;-85
2022/04/10 02:42:44;;;;;;;0.00;0.00;;;1.90;99.90;;;;;;5074763;28;20128;-85
2022/04/10 02:45:11;;;;;;;0.22;0.22;;;1.90;99.90;;;;;;5074743;28;20472;-85
2022/04/10 02:47:36;;;;;;;0.00;0.00;;;2.00;99.90;;;;;;5075094;28;20094;-85
2022/04/10 02:50:08;;;;;;;0.00;0.00;;;2.10;99.90;;;;;;5057949;28;20484;-85
2022/04/10 02:52:34;;;;;;;0.00;0.00;;;2.10;99.90;;;;;;5073528;28;20044;-86
2022/04/10 02:55:00;;;;;;;0.00;0.00;;;2.10;99.90;;;;;;5057999;28;20044;-85
2022/04/10 02:57:25;;;;;;;0.00;0.00;;;2.10;99.90;;;;;;5058118;28;20173;-85
2022/04/10 02:59:51;;;;;;;0.77;0.52;;;2.30;99.90;;;;;;5074691;28;20047;-86
2022/04/10 03:02:17;;;;;;;0.00;0.00;;;2.10;99.90;;;;;;5073823;28;20078;-86
2022/04/10 03:04:43;;;;;;;0.03;0.03;;;2.10;99.90;;;;;;5074140;28;20400;-86
2022/04/10 03:07:08;;;;;;;0.52;0.20;;;2.10;99.90;;;;;;5074343;28;20040;-86
2022/04/10 03:09:34;;;;;;;0.22;0.17;;;2.10;99.90;;;;;;5075070;28;20426;-85
2022/04/10 03:12:00;;;;;;;0.00;0.00;;;2.10;99.90;;;;;;5074097;28;20454;-85
2022/04/10 03:14:25;;;;;;;0.00;0.00;;;2.10;99.90;;;;;;5074270;28;20087;-86
2022/04/10 03:16:51;;;;;;;0.00;0.00;;;2.10;99.90;;;;;;5074346;28;20040;-86
2022/04/10 03:19:17;;;;;;;0.00;0.00;;;2.10;99.90;;;;;;5057180;28;20041;-86
2022/04/10 03:21:42;;;;;;;0.00;0.00;;;2.10;99.90;;;;;;5073923;28;20136;-86
2022/04/10 03:24:08;;;;;;;0.00;0.00;;;2.10;99.90;;;;;;5056976;28;20060;-86
2022/04/10 03:26:34;;;;;;;0.00;0.00;;;2.10;99.90;;;;;;5056754;28;20450;-86
2022/04/10 03:29:00;;;;;;;0.00;0.00;;;2.10;99.90;;;;;;5055350;28;20060;-85
2022/04/10 03:31:26;;;;;;;0.00;0.00;;;2.10;99.90;;;;;;5072252;28;20079;-86
2022/04/10 03:33:51;;;;;;;0.00;0.00;;;2.50;99.90;;;;;;5057088;28;20090;-86
2022/04/10 03:36:17;;;;;;;0.00;0.00;;;2.10;99.90;;;;;;5073761;28;20037;-85
2022/04/10 03:38:43;;;;;;;0.00;0.00;;;2.10;99.90;;;;;;5073738;28;20055;-86
2022/04/10 03:41:09;;;;;;;0.08;0.00;;;2.00;99.90;;;;;;5057050;28;20048;-85
2022/04/10 03:43:35;;;;;;;0.00;0.00;;;2.10;99.90;;;;;;5073276;28;20127;-85
2022/04/10 03:46:00;;;;;;;0.00;0.00;;;2.00;99.90;;;;;;5056642;28;20058;-86
2022/04/10 03:48:26;;;;;;;0.00;0.00;;;2.10;99.90;;;;;;5073624;28;20036;-86
2022/04/10 03:50:52;;;;;;;0.00;0.00;;;2.10;99.90;;;;;;5056421;28;20139;-85
2022/04/10 03:53:18;;;;;;;0.00;0.00;;;2.20;99.90;;;;;;5073541;28;20047;-86
2022/04/10 03:55:44;;;;;;;0.20;0.10;;;2.30;99.90;;;;;;5073473;28;20389;-86
2022/04/10 03:58:09;;;;;;;0.00;0.00;;;2.50;99.90;;;;;;5073314;28;20072;-86
2022/04/10 04:00:35;;;;;;;9.52;1.48;;;2.40;99.90;;;;;;5072931;28;20404;-86
2022/04/10 04:03:01;;;;;;;0.00;0.00;;;2.40;99.90;;;;;;5073258;28;20082;-86
2022/04/10 04:05:28;;;;;;;0.00;0.00;;;2.40;99.90;;;;;;5072980;28;20102;-85
2022/04/10 04:07:54;;;;;;;0.00;0.00;;;2.40;99.90;;;;;;5073091;28;20040;-85
2022/04/10 04:10:20;;;;;;;0.00;0.00;;;2.40;99.90;;;;;;5056530;28;20044;-86
2022/04/10 04:12:46;;;;;;;0.00;0.00;;;2.40;99.90;;;;;;5073176;28;20487;-86
2022/04/10 04:15:12;;;;;;;0.00;0.00;;;2.40;99.90;;;;;;5073140;28;20099;-85
2022/04/10 04:17:38;;;;;;;0.00;0.00;;;2.60;99.90;;;;;;5056442;28;20483;-85
2022/04/10 04:20:08;;;;;;;0.00;0.00;;;2.50;99.90;;;;;;5056403;28;20404;-85
2022/04/10 04:22:35;;;;;;;2.80;0.70;;;2.50;99.90;;;;;;5055834;28;20144;-86
2022/04/10 04:25:03;;;;;;;0.55;0.55;;;2.60;99.90;;;;;;5072821;28;20048;-85
2022/04/10 04:27:29;;;;;;;4.40;0.52;;;2.60;99.90;;;;;;5055924;28;20051;-86
2022/04/10 04:29:55;;;;;;;0.00;0.00;;;2.60;99.90;;;;;;5072921;28;20044;-86
2022/04/10 04:32:20;;;;;;;0.00;0.00;;;2.60;99.90;;;;;;5055986;28;20041;-86
2022/04/10 04:34:49;;;;;;;0.00;0.00;;;2.70;99.90;;;;;;5056078;28;20059;-86
2022/04/10 04:37:15;;;;;;;1.25;0.55;;;2.70;99.90;;;;;;5072968;28;20055;-86
2022/04/10 04:39:40;;;;;;;0.00;0.00;;;2.70;99.90;;;;;;5072969;28;20044;-86
2022/04/10 04:42:07;;;;;;;0.00;0.00;;;2.70;99.90;;;;;;5055836;28;20059;-86
2022/04/10 04:44:33;;;;;;;4.05;0.73;;;2.80;99.90;;;;;;5072961;28;20080;-86
2022/04/10 04:46:59;;;;;;;0.00;0.00;;;2.80;99.90;;;;;;5055614;28;20087;-86
2022/04/10 04:49:25;;;;;;;0.00;0.00;;;2.80;99.90;;;;;;5071870;28;20052;-86
2022/04/10 04:51:51;;;;;;;0.00;0.00;;;2.80;99.90;;;;;;5072373;28;20048;-86
2022/04/10 04:54:17;;;;;;;0.00;0.00;;;2.80;99.90;;;;;;5055522;28;20135;-86
2022/04/10 04:56:42;;;;;;;0.00;0.00;;;2.80;99.90;;;;;;5055084;28;20061;-86
2022/04/10 04:59:08;;;;;;;0.88;0.88;;;2.80;99.90;;;;;;5055560;28;20052;-86
2022/04/10 05:01:34;;;;;;;0.00;0.00;;;2.90;99.90;;;;;;5055518;28;20040;-87
2022/04/10 05:04:00;;;;;;;0.00;0.00;;;2.80;99.90;;;;;;5055551;28;20127;-86
2022/04/10 05:06:25;;;;;;;0.00;0.00;;;2.90;99.90;;;;;;5056447;28;20135;-86
2022/04/10 05:08:52;;;;;;;0.00;0.00;;;2.90;99.90;;;;;;5072781;28;20045;-86
2022/04/10 05:11:17;;;;;;;0.00;0.00;;;2.90;99.90;;;;;;5055318;28;20048;-86
2022/04/10 05:13:44;;;;;;;0.00;0.00;;;2.90;99.90;;;;;;5072119;28;20101;-86
2022/04/10 05:16:10;;;;;;;0.00;0.00;;;2.90;99.90;;;;;;5058501;28;20048;-86
2022/04/10 05:18:36;;;;;;;0.65;0.00;;;2.90;99.90;;;;;;5059629;28;20135;-86
2022/04/10 05:21:02;;;;;;;0.00;0.00;;;2.90;99.90;;;;;;5076041;28;20072;-86
2022/04/10 05:23:29;;;;;;;0.00;0.00;;;2.90;99.90;;;;;;5075800;28;20496;-86
2022/04/10 05:25:55;;;;;;;9.32;0.25;;;2.90;99.90;;;;;;5059906;28;20137;-86
2022/04/10 05:28:22;;;;;;;0.00;0.00;;;2.90;99.90;;;;;;5059656;28;20048;-86
2022/04/10 05:30:48;;;;;;;0.00;0.00;;;2.90;99.90;;;;;;5059556;28;20040;-85
2022/04/10 05:33:14;;;;;;;0.00;0.00;;;2.90;99.90;;;;;;5075938;28;20048;-87
2022/04/10 05:35:40;;;;;;;0.00;0.00;;;3.00;99.90;;;;;;5076380;28;20052;-87
2022/04/10 05:38:06;;;;;;;0.00;0.00;;;3.10;99.90;;;;;;5076603;28;20066;-87
2022/04/10 05:40:32;;;;;;;0.00;0.00;;;3.10;99.90;;;;;;5058899;28;20063;-87
2022/04/10 05:42:58;;;;;;;0.00;0.00;;;3.20;99.90;;;;;;5075676;28;20048;-87
2022/04/10 05:45:24;;;;;;;0.00;0.00;;;3.40;99.90;;;;;;5074774;28;20045;-86
2022/04/10 05:47:49;;;;;;;0.00;0.00;;;3.50;99.90;;;;;;5075259;28;20049;-86
2022/04/10 05:50:16;;;;;;;0.00;0.00;;;3.50;99.90;;;;;;5058874;28;20056;-86
2022/04/10 05:52:46;;;;;;;0.00;0.00;;;3.60;99.90;;;;;;5075593;28;20492;-86
2022/04/10 05:55:17;;;;;;;0.00;0.00;;;3.60;99.90;;;;;;5059528;28;20055;-87
2022/04/10 05:57:44;;;;;;;0.00;0.00;;;3.70;99.90;;;;;;5074916;28;20512;-86
2022/04/10 06:00:12;;;;;;;0.00;0.00;;;3.70;99.90;;;;;;5075499;28;20047;-87
2022/04/10 06:02:39;;;;;;;0.00;0.00;;;3.90;99.90;;;;;;5075341;28;20049;-86
2022/04/10 06:05:06;;;;;;;0.00;0.00;;;4.30;99.90;;;;;;5058844;28;20149;-87
2022/04/10 06:07:32;;;;;;;0.00;0.00;;;4.20;99.90;;;;;;5058764;28;20460;-87
2022/04/10 06:09:58;;;;;;;0.00;0.00;;;4.30;99.90;;;;;;5075582;28;20133;-87
2022/04/10 06:12:25;;;;;;;0.00;0.00;;;4.40;99.90;;;;;;5074790;28;20060;-87
2022/04/10 06:14:50;;;;;;;0.00;0.00;;;4.50;99.90;;;;;;5075452;28;20469;-86
2022/04/10 06:17:16;;;;;;;0.00;0.00;;;4.60;99.90;;;;;;5059010;28;20044;-88
2022/04/10 06:19:42;;;;;;;0.00;0.00;;;4.70;99.90;;;;;;5055745;28;20040;-85
2022/04/10 06:22:08;;;;;;;0.00;0.00;;;4.80;99.90;;;;;;5072600;28;20084;-87
2022/04/10 06:24:35;;;;;;;0.00;0.00;;;5.00;99.90;;;;;;5071630;28;20052;-86
2022/04/10 06:27:01;;;;;;;0.15;0.15;;;5.00;99.90;;;;;;5070991;28;20500;-85
2022/04/10 06:29:27;;;;;;;0.00;0.00;;;4.90;99.90;;;;;;5055756;28;20056;-87
2022/04/10 06:31:53;;;;;;;0.00;0.00;;;4.90;99.90;;;;;;5072443;28;20098;-87
2022/04/10 06:34:18;;;;;;;0.00;0.00;;;4.90;99.90;;;;;;5072812;28;20088;-88
2022/04/10 06:36:44;;;;;;;0.00;0.00;;;4.90;99.90;;;;;;5055957;28;20057;-89
2022/04/10 06:39:10;;;;;;;0.00;0.00;;;4.90;99.90;;;;;;5056503;28;20057;-88
2022/04/10 06:41:36;;;;;;;0.00;0.00;;;5.00;99.90;;;;;;5072215;28;20052;-88
2022/04/10 06:44:02;;;;;;;0.00;0.00;;;5.10;99.90;;;;;;5072264;28;20056;-88
2022/04/10 06:46:28;;;;;;;0.00;0.00;;;5.60;99.90;;;;;;5056350;28;20079;-86
2022/04/10 06:48:54;;;;;;;0.00;0.00;;;6.30;99.90;;;;;;5071548;28;20065;-86
2022/04/10 06:51:21;;;;;;;2.50;0.85;;;7.10;99.90;;;;;;5071864;28;20061;-92
2022/04/10 06:53:48;;;;;;;0.00;0.00;;;7.60;99.90;;;;;;5072480;28;20111;-88
2022/04/10 06:56:14;;;;;;;0.00;0.00;;;8.20;99.90;;;;;;5072291;28;20056;-84
2022/04/10 06:58:40;;;;;;;0.00;0.00;;;9.00;99.90;;;;;;5071761;28;20503;-85
2022/04/10 07:01:05;;;;;;;0.00;0.00;;;10.00;99.90;;;;;;5055421;28;20504;-85
2022/04/10 07:03:31;;;;;;;0.22;0.22;;;10.80;99.90;;;;;;5055339;28;20055;-84
2022/04/10 07:05:57;;;;;;;0.00;0.00;;;11.50;99.90;;;;;;5072125;28;20488;-85
2022/04/10 07:08:22;;;;;;;0.00;0.00;;;11.70;99.90;;;;;;5055784;28;20060;-88
2022/04/10 07:10:48;;;;;;;0.00;0.00;;;11.20;99.90;;;;;;5071055;28;20496;-89
2022/04/10 07:13:18;;;;;;;0.00;0.00;;;11.20;99.90;;;;;;5072587;28;20044;-85
2022/04/10 07:15:45;;;;;;;0.00;0.00;;;11.60;99.90;;;;;;5055723;28;20052;-85
2022/04/10 07:18:11;;;;;;;0.00;0.00;;;11.80;99.90;;;;;;5072283;28;20109;-86
2022/04/10 07:20:36;;;;;;;0.00;0.00;;;12.30;99.90;;;;;;5072442;28;20479;-84
2022/04/10 07:25:46;;;;;;;0.00;0.00;;;13.60;97.40;;;;;;5052119;28;20052;-83
2022/04/10 07:28:12;;;;;;;0.00;0.00;;;14.00;96.80;;;;;;5035640;28;20083;-85
2022/04/10 07:30:38;;;;;;;0.08;0.08;;;14.40;96.00;;;;;;5035229;28;20052;-86
2022/04/10 07:33:04;;;;;;;0.00;0.00;;;14.50;94.10;;;;;;5063164;28;20044;-84
2022/04/10 07:35:29;;;;;;;0.00;0.00;;;14.10;93.50;;;;;;5056910;28;20165;-85
2022/04/10 07:37:55;;;;;;;0.22;0.13;;;13.60;94.40;;;;;;5056719;28;20538;-85
2022/04/10 07:40:24;;;;;;;0.00;0.00;;;13.60;95.20;;;;;;5057162;28;20048;-85
2022/04/10 07:42:50;;;;;;;0.00;0.00;;;13.40;93.70;;;;;;5073429;28;20492;-86
2022/04/10 07:48:01;;;;;;;0.00;0.00;;;13.00;95.40;;;;;;5073450;28;20052;-86
2022/04/10 07:50:27;;;;;;;1.05;0.28;;;12.60;95.20;;;;;;5073168;28;20484;-86
2022/04/10 07:52:53;;;;;;;0.15;0.05;;;12.70;97.20;;;;;;5057336;28;20503;-86
2022/04/10 07:55:19;;;;;;;0.00;0.00;;;12.60;96.40;;;;;;5057249;28;20045;-87
2022/04/10 07:57:44;;;;;;;0.00;0.00;;;12.40;97.90;;;;;;5073503;28;20500;-87
2022/04/10 08:00:11;;;;;;;1.75;0.52;;;12.70;98.30;;;;;;5073475;28;20114;-87
2022/04/10 08:02:42;;;;;;;0.00;0.00;;;12.00;98.20;;;;;;5056283;28;20045;-85
2022/04/10 08:05:08;;;;;;;0.00;0.00;;;11.40;96.70;;;;;;5074142;28;20102;-87
2022/04/10 08:07:34;;;;;;;0.00;0.00;;;11.10;98.70;;;;;;5073242;28;20048;-87
2022/04/10 08:10:00;;;;;;;0.00;0.00;;;11.00;99.90;;;;;;5056120;28;20051;-87
2022/04/10 08:12:27;;;;;;;0.00;0.00;;;11.30;99.90;;;;;;5056656;28;20049;-87
2022/04/10 08:14:53;;;;;;;0.00;0.00;;;11.10;99.90;;;;;;5073178;28;20063;-87
2022/04/10 08:17:19;;;;;;;0.00;0.00;;;10.90;99.90;;;;;;5056575;28;20131;-86
2022/04/10 08:19:44;;;;;;;0.00;0.00;;;10.50;99.90;;;;;;5056371;28;20387;-87
2022/04/10 08:22:10;;;;;;;0.00;0.00;;;10.00;99.90;;;;;;5056195;28;20044;-86
2022/04/10 08:24:36;;;;;;;0.10;0.10;;;9.50;99.90;;;;;;5056364;28;20518;-86
2022/04/10 08:27:03;;;;;;;0.00;0.00;;;9.20;99.90;;;;;;5072912;28;20412;-86
2022/04/10 08:29:29;;;;;;;0.00;0.00;;;8.90;99.90;;;;;;5056471;28;20102;-86
2022/04/10 08:31:55;;;;;;;0.00;0.00;;;8.90;99.90;;;;;;5072819;28;20500;-86
2022/04/10 08:34:20;;;;;;;1.10;0.00;;;8.90;99.90;;;;;;5072777;28;20173;-87
2022/04/10 08:36:46;;;;;;;1.35;0.35;;;9.20;99.90;;;;;;5056027;28;20056;-86
2022/04/10 08:39:12;;;;;;;0.00;0.00;;;9.20;99.90;;;;;;5072700;28;20051;-86
2022/04/10 08:41:38;;;;;;;0.00;0.00;;;9.40;99.90;;;;;;5055950;28;20134;-87
2022/04/10 08:44:05;;;;;;;0.00;0.00;;;9.50;99.90;;;;;;5056001;28;20050;-87
2022/04/10 08:46:33;;;;;;;0.00;0.00;;;9.70;99.90;;;;;;5055940;28;20052;-86
2022/04/10 08:48:59;;;;;;;0.30;0.30;;;9.80;99.90;;;;;;5055866;28;20064;-87
2022/04/10 08:51:26;;;;;;;0.00;0.00;;;10.10;99.90;;;;;;5072099;28;20056;-87
2022/04/10 08:53:56;;;;;;;0.00;0.00;;;10.30;99.90;;;;;;5072713;28;20392;-88
2022/04/10 08:56:23;;;;;;;0.20;0.15;;;10.40;99.90;;;;;;5072643;28;20472;-87
2022/04/10 08:58:52;;;;;;;0.00;0.00;;;10.50;99.90;;;;;;5055993;28;20056;-88
2022/04/10 09:01:19;;;;;;;0.65;0.10;;;10.60;99.90;;;;;;5072465;28;20088;-87
2022/04/10 09:03:49;;;;;;;0.00;0.00;;;10.80;99.90;;;;;;5071391;28;20067;-88
2022/04/10 09:06:16;;;;;;;3.40;0.52;;;11.10;99.90;;;;;;5054609;28;20515;-89
2022/04/10 09:08:43;;;;;;;0.82;0.25;;;11.30;99.90;;;;;;5052600;28;20128;-89
2022/04/10 09:11:10;;;;;;;0.25;0.10;;;11.60;99.90;;;;;;5052373;28;20098;-89
2022/04/10 09:13:41;;;;;;;0.15;0.10;;;12.00;99.90;;;;;;5035804;28;20049;-86
2022/04/10 09:16:19;;;;;;;0.17;0.00;;;12.10;99.90;;;;;;5052017;28;20571;-86
2022/04/10 09:18:51;;;;;;;0.00;0.00;;;11.80;99.90;;;;;;5036118;28;20049;-88
2022/04/10 09:21:19;;;;;;;0.00;0.00;;;11.00;99.90;;;;;;5035622;28;20060;-89
2022/04/10 09:23:53;;;;;;;0.00;0.00;;;10.20;99.90;;;;;;5035138;28;20504;-87
2022/04/10 09:26:19;;;;;;;0.00;0.00;;;9.60;99.90;;;;;;5052119;28;20463;-87
2022/04/10 09:28:47;;;;;;;0.00;0.00;;;9.10;99.90;;;;;;5035619;28;20045;-87
2022/04/10 09:31:30;;;;;;;0.00;0.00;;;8.80;99.90;;;;;;5036218;28;20400;-87
2022/04/10 09:33:58;;;;;;;0.00;0.00;;;8.50;99.90;;;;;;5035532;28;20063;-87
2022/04/10 09:36:42;;;;;;;0.00;0.00;;;8.20;99.90;;;;;;5035600;28;20139;-87
2022/04/10 09:39:35;;;;;;;0.05;0.00;;;8.40;99.90;;;;;;5052856;28;20048;-87
2022/04/10 09:42:10;;;;;;;0.00;0.00;;;8.80;99.90;;;;;;5035464;28;20044;-87
2022/04/10 09:44:40;;;;;;;0.15;0.10;;;9.30;99.90;;;;;;5035623;28;20484;-87
2022/04/10 09:47:10;;;;;;;0.00;0.00;;;9.80;99.90;;;;;;5052009;28;20045;-87
2022/04/10 09:49:41;;;;;;;0.00;0.00;;;9.90;99.90;;;;;;5052418;28;20055;-88
2022/04/10 09:52:11;;;;;;;0.00;0.00;;;10.60;99.90;;;;;;5035414;28;20365;-87
2022/04/10 09:54:46;;;;;;;0.00;0.00;;;10.80;99.90;;;;;;5035438;28;20455;-87
2022/04/10 09:57:17;;;;;;;0.00;0.00;;;10.90;99.90;;;;;;5035610;28;20044;-87
2022/04/10 09:59:44;;;;;;;0.00;0.00;;;11.00;99.90;;;;;;5035371;28;20098;-87
2022/04/10 10:02:12;;;;;;;1.08;0.40;;;11.20;99.90;;;;;;5037722;28;20116;-88
2022/04/10 10:04:39;;;;;;;0.20;0.20;;;11.50;99.90;;;;;;5055218;28;20108;-87
2022/04/10 10:07:08;;;;;;;0.10;0.10;;;11.60;99.90;;;;;;5038854;28;20170;-87
2022/04/10 10:09:35;;;;;;;0.38;0.22;;;11.70;99.90;;;;;;5038808;28;20396;-87
2022/04/10 10:12:02;;;;;;;0.00;0.00;;;11.70;99.40;;;;;;5055525;28;20426;-87
2022/04/10 10:14:30;;;;;;;0.00;0.00;;;11.60;99.90;;;;;;5055931;28;20045;-88
2022/04/10 10:16:58;;;;;;;0.00;0.00;;;11.60;99.80;;;;;;5054996;28;20052;-87
2022/04/10 10:19:25;;;;;;;0.00;0.00;;;11.30;99.90;;;;;;5055398;28;20045;-88
2022/04/10 10:21:51;;;;;;;0.00;0.00;;;11.70;99.90;;;;;;5038722;28;20135;-88
2022/04/10 10:24:19;;;;;;;0.00;0.00;;;11.80;99.90;;;;;;5054910;28;20079;-87
2022/04/10 10:26:56;;;;;;;0.00;0.00;;;12.10;99.00;;;;;;5038365;28;20520;-87
2022/04/10 10:29:27;;;;;;;0.00;0.00;;;12.30;98.30;;;;;;5055056;28;20059;-88
2022/04/10 10:32:12;;;;;;;0.00;0.00;;;12.50;94.50;;;;;;5038521;28;20056;-88
2022/04/10 10:34:39;;;;;;;0.00;0.00;;;12.80;96.90;;;;;;5055167;28;20049;-88
2022/04/10 10:37:05;;;;;;;0.55;0.38;;;13.00;95.50;;;;;;5054982;28;20117;-88
2022/04/10 10:39:31;;;;;;;0.00;0.00;;;13.10;93.00;;;;;;5055053;28;20055;-88
2022/04/10 10:42:10;;;;;;;0.00;0.00;;;13.20;92.10;;;;;;5038407;28;20053;-88
2022/04/10 10:44:41;;;;;;;0.00;0.00;;;13.10;91.50;;;;;;5054620;28;20148;-88
2022/04/10 10:47:16;;;;;;;7.22;0.70;;;12.70;91.60;;;;;;5037682;28;20053;-89
2022/04/10 10:49:50;;;;;;;0.00;0.00;;;12.10;92.40;;;;;;5038209;28;20051;-89
2022/04/10 10:52:19;;;;;;;0.10;0.00;;;11.80;92.30;;;;;;5038169;28;20048;-88
2022/04/10 10:54:57;;;;;;;0.10;0.10;;;11.50;92.60;;;;;;5038033;28;20055;-88
2022/04/10 10:57:29;;;;;;;0.00;0.00;;;11.30;94.10;;;;;;5037362;28;20488;-88
2022/04/10 11:00:17;;;;;;;0.00;0.00;;;11.40;94.70;;;;;;5037794;28;20051;-88
2022/04/10 11:02:53;;;;;;;0.00;0.00;;;11.60;95.70;;;;;;5054696;28;20088;-88
2022/04/10 11:05:25;;;;;;;0.10;0.10;;;11.80;94.70;;;;;;5054408;28;20052;-87
2022/04/10 11:08:12;;;;;;;0.00;0.00;;;12.20;94.40;;;;;;5037978;28;20049;-88
2022/04/10 11:11:00;;;;;;;1.35;0.45;;;12.30;91.30;;;;;;5053898;28;20103;-88
2022/04/10 11:13:42;;;;;;;0.10;0.10;;;12.40;90.00;;;;;;4977209;28;20239;-87
2022/04/10 11:16:13;;;;;;;0.03;0.03;;;12.60;92.00;;;;;;4961878;28;20061;-88
2022/04/10 11:18:43;;;;;;;0.20;0.20;;;12.60;91.40;;;;;;4961577;28;20064;-88
2022/04/10 11:21:13;;;;;;;0.00;0.00;;;12.50;91.80;;;;;;4961649;28;20046;-87
2022/04/10 11:23:47;;;;;;;0.00;0.00;;;12.30;91.30;;;;;;4977646;28;20573;-88
2022/04/10 11:26:18;;;;;;;0.00;0.00;;;12.20;91.80;;;;;;4961645;28;20054;-88
2022/04/10 11:29:03;;;;;;;0.00;0.00;;;12.00;91.70;;;;;;4977875;28;20046;-83
2022/04/10 11:31:31;;;;;;;0.90;0.38;;;11.70;91.40;;;;;;4961373;28;20054;-88
2022/04/10 11:34:07;;;;;;;0.00;0.00;;;11.40;88.10;;;;;;4977383;28;20057;-89
2022/04/10 11:36:55;;;;;;;0.47;0.43;;;11.30;90.90;;;;;;4961783;28;20184;-88
2022/04/10 11:39:28;;;;;;;0.00;0.00;;;11.50;91.90;;;;;;4977754;28;20051;-87
2022/04/10 11:42:04;;;;;;;0.00;0.00;;;12.00;92.70;;;;;;4963436;28;20054;-88
2022/04/10 11:44:31;;;;;;;0.00;0.00;;;12.40;93.50;;;;;;4976354;28;20054;-89
2022/04/10 11:47:01;;;;;;;0.00;0.00;;;12.80;92.70;;;;;;4960927;28;20057;-87
2022/04/10 11:49:27;;;;;;;0.00;0.00;;;13.10;90.20;;;;;;4964815;28;20133;-87
2022/04/10 11:52:00;;;;;;;0.00;0.00;;;13.40;85.70;;;;;;5047728;28;20049;-87
2022/04/10 11:54:31;;;;;;;0.00;0.00;;;13.60;86.20;;;;;;5054121;28;20110;-87
2022/04/10 11:57:03;;;;;;;0.00;0.00;;;13.70;82.20;;;;;;5055823;28;20058;-86
2022/04/10 11:59:40;;;;;;;0.00;0.00;;;13.90;84.60;;;;;;5072847;28;20055;-88
2022/04/10 12:02:13;;;;;;;0.00;0.00;;;13.80;85.50;;;;;;5055940;28;20394;-88
2022/04/10 12:04:40;;;;;;;0.00;0.00;;;13.60;84.50;;;;;;5072528;28;20127;-88
2022/04/10 12:07:13;;;;;;;0.15;0.15;;;13.20;82.40;;;;;;5054234;28;20041;-88
2022/04/10 12:09:40;;;;;;;0.00;0.00;;;12.70;80.50;;;;;;5036345;28;20555;-88
2022/04/10 12:12:06;;;;;;;0.00;0.00;;;12.70;80.80;;;;;;5052673;28;20064;-88
2022/04/10 12:14:32;;;;;;;0.10;0.10;;;13.00;83.40;;;;;;5052976;28;20044;-87
2022/04/10 12:16:58;;;;;;;0.00;0.00;;;13.40;82.10;;;;;;5071114;28;20048;-88
2022/04/10 12:19:36;;;;;;;0.00;0.00;;;13.90;82.00;;;;;;5070283;28;20385;-87
2022/04/10 12:22:03;;;;;;;0.00;0.00;;;14.40;82.60;;;;;;5057689;28;20055;-88
2022/04/10 12:24:30;;;;;;;0.00;0.00;;;14.60;80.50;;;;;;5033949;28;20106;-87
2022/04/10 12:26:58;;;;;;;0.00;0.00;;;14.60;79.80;;;;;;5035441;28;20537;-87
2022/04/10 12:29:24;;;;;;;0.00;0.00;;;14.40;76.40;;;;;;5035713;28;20041;-88
2022/04/10 12:31:51;;;;;;;0.00;0.00;;;14.00;77.40;;;;;;5035542;28;20051;-87
2022/04/10 12:34:17;;;;;;;3.00;0.55;;;13.80;77.10;;;;;;5051855;28;20043;-86
2022/04/10 12:36:48;;;;;;;0.00;0.00;;;13.90;80.90;;;;;;5060956;28;20049;-89
2022/04/10 12:39:28;;;;;;;1.27;0.70;;;13.80;79.10;;;;;;5072104;28;20062;-87
2022/04/10 12:42:07;;;;;;;0.00;0.00;;;13.60;76.60;;;;;;5055200;28;20040;-87
2022/04/10 12:44:36;;;;;;;0.28;0.00;;;13.40;75.60;;;;;;5057461;28;20079;-90
2022/04/10 12:47:03;;;;;;;0.13;0.13;;;13.00;74.90;;;;;;5072393;28;20510;-86
2022/04/10 12:49:29;;;;;;;0.00;0.00;;;12.90;76.10;;;;;;5072005;28;20049;-87
2022/04/10 12:52:05;;;;;;;0.00;0.00;;;12.90;77.70;;;;;;5072123;28;20139;-86
2022/04/10 12:54:46;;;;;;;0.05;0.05;;;12.80;73.90;;;;;;5071772;28;20094;-85
2022/04/10 12:57:14;;;;;;;0.13;0.13;;;12.70;73.40;;;;;;5055294;28;20048;-86
2022/04/10 12:59:46;;;;;;;0.00;0.00;;;12.50;77.40;;;;;;5055295;28;20040;-86
2022/04/10 13:02:25;;;;;;;0.00;0.00;;;12.50;77.70;;;;;;5055042;28;20419;-86